メインページ
METAR-TAF:

METAR-TAF

空港 :

バンクーバー国際空港

バンクーバー, ブリティッシュコロンビア州, カナダ

緯度: 49-11N, 経度: 123-10W, 海抜: 3m

現時点の気象観測

当レポートは34分前の19:00(UTC)に作成
西の風 7kt、西から北/北西の間で変化する
気温 15°C
湿度 77%
気圧 1020 hPa
視程: 48.3km
高度3500ftの雲はほとんどない
高度22000ftの雲は散在している

METAR: CYVR 181900Z 28007KT 260V330 30SM FEW035 SCT220 15/11 A3013 RMK CU1CI2 CONTRAILS SLP205

時間: 12:34 (19:34 UTC)

予報

当レポートは1時間56分前の17:38(UTC)に作成
予報は18日の 18時(UTC)から 19日の 24時(UTC)まで有効
変向風 3kt
視程: 10km
高度3000ftの雲はほとんどない
高度24000ftの雲は散在している
18日の 18時(UTC)から 18日の 20時(UTC)まで徐々に
西/北西の風 8kt
19日の 05時(UTC)から 19日の 07時(UTC)まで徐々に
変向風 3kt
19日の 1300時(UTC)から
の風 5kt
視程: 10km
高度500ftの雲はほとんどない
確率 30%
19日の 13時(UTC)から 19日の 17時(UTC)まで
視程: 0.8km
高度300ftの千切れ雲あり
19日の 1800時(UTC)から
西/南西の風 7kt
視程: 10km
高度4000ftの雲は散在している
高度10000ftの千切れ雲あり

TAF: CYVR 181738Z 1818/1924 VRB03KT P6SM FEW030 SCT240 BECMG 1818/1820 29008KT BECMG 1905/1907 VRB03KT FM191300 10005KT P6SM FEW005 PROB30 1913/1917 1/2SM FG BKN003 FM191800 24007KT P6SM SCT040 BKN100 RMK NXT FCST BY 182100Z

4,000以上の空港の気象観測と天気予報(METAR報とTAF報)

利用可能な観測所は地図上に黄色い丸と赤い丸で示す。

丸の上にカーソルを重ねると観測所名を参照できる。

次にクリックすると気象観測と天気予報を参照できる。

マップの切り替え:黒色「×」印の緑ボタンをクリックして拡大、「-」印の緑ボタンをクリックして縮小、緑色の三角印をクリックして隣りの地図に切り替え


METAR-TAF: